Terminal Aerodrome Forecast
Issued by NWS

Home | Current Version | Previous Version | Text Only | Print | Product List | Glossary On
Versions: 1 2 3 4 5 6 7 8 9 10 11 12 13 14 15 16 17 18 19 20 21 22 23 24
000
FTUS46 KLOX 291900 AAA
TAFOXR
TAF AMD
KOXR 291908Z 2919/3018 21007KT 4SM HZ BKN009
     FM292100 26007KT P6SM SCT250
     FM300500 VRB03KT 2SM BR OVC003
     FM301000 VRB03KT 1/2SM FG VV002
     FM301700 15006KT 4SM HZ SCT005=

USA.gov is the U.S. government's official web portal to all federal, state and local government web resources and services.